createdAt,value
2017-07-08T00:00:50.924Z,20.50
2017-07-08T00:03:19.463Z,20.50
2017-07-08T00:05:46.952Z,20.50
2017-07-08T00:08:14.550Z,20.50
2017-07-08T00:10:42.026Z,20.50
2017-07-08T00:13:09.510Z,20.40
2017-07-08T00:15:37.223Z,20.40
2017-07-08T00:18:04.779Z,20.40
2017-07-08T00:20:33.032Z,20.30
2017-07-08T00:23:00.571Z,20.30
2017-07-08T00:25:28.089Z,20.30
2017-07-08T00:27:55.579Z,20.30
2017-07-08T00:30:23.072Z,20.30
2017-07-08T00:32:50.563Z,20.30
2017-07-08T00:35:18.060Z,20.40
2017-07-08T00:37:45.577Z,20.40
2017-07-08T00:40:13.078Z,20.40
2017-07-08T00:42:40.589Z,20.50
2017-07-08T00:45:08.882Z,20.50
2017-07-08T00:47:36.418Z,20.50
2017-07-08T00:50:04.686Z,20.50
2017-07-08T00:52:33.095Z,20.60
2017-07-08T00:55:00.598Z,20.50
2017-07-08T00:57:28.082Z,20.50
2017-07-08T00:59:56.371Z,20.30
2017-07-08T01:02:24.637Z,20.30
2017-07-08T01:04:52.905Z,20.40
2017-07-08T01:07:21.438Z,20.40
2017-07-08T01:09:49.005Z,20.40
2017-07-08T01:12:16.485Z,20.40
2017-07-08T01:14:44.010Z,20.50
2017-07-08T01:17:12.353Z,20.50
2017-07-08T01:19:40.657Z,20.50
2017-07-08T01:22:08.189Z,20.50
2017-07-08T01:24:36.453Z,20.60
2017-07-08T01:27:03.955Z,20.50
2017-07-08T01:29:31.487Z,20.60
2017-07-08T01:31:59.754Z,20.50
2017-07-08T01:34:27.225Z,20.50
2017-07-08T01:36:55.503Z,20.30
2017-07-08T01:39:23.757Z,20.20
2017-07-08T01:41:51.253Z,20.20
2017-07-08T01:44:18.777Z,20.30
2017-07-08T01:46:46.286Z,20.30
2017-07-08T01:49:13.774Z,20.40
2017-07-08T01:51:41.491Z,20.40
2017-07-08T01:54:08.973Z,20.30
2017-07-08T01:56:36.455Z,20.30
2017-07-08T01:59:03.982Z,20.30
2017-07-08T02:01:31.547Z,20.40
2017-07-08T02:03:59.070Z,20.30
2017-07-08T02:06:27.340Z,20.30
2017-07-08T02:08:56.376Z,20.30
2017-07-08T02:11:23.885Z,20.30
2017-07-08T02:13:51.401Z,20.30
2017-07-08T02:16:18.885Z,20.30
2017-07-08T02:18:46.376Z,20.40
2017-07-08T02:21:14.656Z,20.20
2017-07-08T02:23:42.938Z,20.20
2017-07-08T02:26:11.316Z,20.20
2017-07-08T02:28:39.575Z,20.20
2017-07-08T02:31:07.877Z,20.40
2017-07-08T02:33:35.362Z,20.40
2017-07-08T02:36:02.896Z,20.40
2017-07-08T02:38:30.411Z,20.50
2017-07-08T02:40:57.904Z,20.50
2017-07-08T02:43:26.215Z,20.50
2017-07-08T02:45:53.748Z,20.50
2017-07-08T02:48:21.263Z,20.50
2017-07-08T02:50:48.752Z,20.40
2017-07-08T02:53:17.241Z,20.40
2017-07-08T02:55:45.500Z,20.40
2017-07-08T02:58:13.014Z,20.40
2017-07-08T03:00:40.751Z,20.40
2017-07-08T03:03:08.266Z,20.40
2017-07-08T03:05:35.858Z,20.40
2017-07-08T03:08:04.141Z,20.30
2017-07-08T03:10:31.634Z,20.30
2017-07-08T03:12:59.132Z,20.30
2017-07-08T03:15:26.669Z,20.30
2017-07-08T03:17:54.200Z,20.20
2017-07-08T03:20:21.709Z,20.20
2017-07-08T03:22:49.295Z,20.20
2017-07-08T03:25:17.566Z,20.20
2017-07-08T03:27:45.829Z,20.20
2017-07-08T03:30:13.337Z,20.20
2017-07-08T03:32:40.833Z,20.20
2017-07-08T03:35:08.323Z,20.30
2017-07-08T03:37:35.837Z,20.30
2017-07-08T03:40:03.345Z,20.30
2017-07-08T03:42:30.832Z,20.40
2017-07-08T03:44:58.339Z,20.40
2017-07-08T03:47:25.837Z,20.30
2017-07-08T03:49:53.964Z,20.40
2017-07-08T03:52:21.505Z,20.40
2017-07-08T03:54:49.014Z,20.50
2017-07-08T03:57:16.587Z,20.40
2017-07-08T03:59:44.138Z,20.50
2017-07-08T04:02:11.709Z,20.50
2017-07-08T04:04:39.206Z,20.50
2017-07-08T04:07:06.870Z,20.50
2017-07-08T04:09:34.361Z,20.50
2017-07-08T04:12:02.623Z,20.50
2017-07-08T04:14:30.163Z,20.40
2017-07-08T04:16:57.692Z,20.50
2017-07-08T04:19:25.182Z,20.50
2017-07-08T04:21:52.682Z,20.60
2017-07-08T04:24:20.955Z,20.80
2017-07-08T04:26:49.244Z,20.80
2017-07-08T04:29:16.767Z,20.80
2017-07-08T04:31:44.300Z,20.80
2017-07-08T04:34:11.804Z,20.80
2017-07-08T04:36:40.296Z,20.70
2017-07-08T04:39:07.823Z,20.70
2017-07-08T04:41:35.348Z,20.70
2017-07-08T04:44:02.879Z,20.90
2017-07-08T04:46:31.277Z,21.00
2017-07-08T04:48:58.851Z,21.00
2017-07-08T04:51:26.383Z,21.00
2017-07-08T04:53:53.934Z,21.20
2017-07-08T04:56:21.420Z,21.20
2017-07-08T04:58:48.958Z,21.20
2017-07-08T05:01:16.510Z,21.10
2017-07-08T05:03:44.069Z,21.30
2017-07-08T05:06:12.352Z,21.30
2017-07-08T05:08:39.842Z,21.30
2017-07-08T05:11:07.350Z,21.30
2017-07-08T05:13:35.801Z,21.50
2017-07-08T05:16:03.307Z,21.40
2017-07-08T05:18:30.815Z,21.50
2017-07-08T05:20:58.437Z,21.70
2017-07-08T05:23:25.933Z,21.60
2017-07-08T05:25:53.440Z,21.60
2017-07-08T05:28:21.745Z,21.60
2017-07-08T05:30:49.218Z,21.60
2017-07-08T05:33:16.712Z,21.70
2017-07-08T05:35:44.229Z,21.90
2017-07-08T05:38:11.719Z,22.00
2017-07-08T05:40:39.319Z,22.20
2017-07-08T05:43:06.832Z,22.20
2017-07-08T05:45:34.330Z,22.30
2017-07-08T05:48:02.617Z,22.30
2017-07-08T05:50:30.131Z,22.30
2017-07-08T05:52:57.648Z,22.40
2017-07-08T05:55:25.157Z,22.20
2017-07-08T05:57:52.843Z,22.30
2017-07-08T06:00:21.104Z,22.20
2017-07-08T06:02:48.602Z,22.20
2017-07-08T06:05:16.106Z,22.20
2017-07-08T06:07:43.610Z,22.40
2017-07-08T06:10:11.292Z,22.60
2017-07-08T06:12:38.832Z,22.50
2017-07-08T06:15:06.317Z,22.70
2017-07-08T06:17:33.971Z,23.00
2017-07-08T06:20:01.490Z,23.20
2017-07-08T06:22:29.793Z,22.90
2017-07-08T06:24:57.286Z,22.90
2017-07-08T06:27:24.889Z,23.20
2017-07-08T06:29:53.659Z,22.70
2017-07-08T06:32:21.193Z,22.70
2017-07-08T06:34:48.695Z,23.00
2017-07-08T06:37:16.953Z,23.50
2017-07-08T06:39:44.827Z,23.50
2017-07-08T06:42:12.337Z,23.40
2017-07-08T06:44:39.856Z,23.40
2017-07-08T06:47:08.111Z,23.20
2017-07-08T06:49:35.627Z,23.20
2017-07-08T06:52:03.165Z,23.70
2017-07-08T06:54:30.723Z,23.90
2017-07-08T06:56:58.242Z,24.20
2017-07-08T06:59:25.757Z,24.20
2017-07-08T07:01:53.239Z,24.40
2017-07-08T07:04:20.751Z,24.30
2017-07-08T07:06:49.152Z,24.40
2017-07-08T07:09:16.629Z,24.40
2017-07-08T07:11:45.766Z,24.60
2017-07-08T07:14:13.310Z,24.70
2017-07-08T07:16:41.077Z,24.80
2017-07-08T07:19:08.703Z,24.90
2017-07-08T07:21:36.198Z,24.50
2017-07-08T07:24:03.692Z,24.10
2017-07-08T07:26:32.200Z,24.20
2017-07-08T07:28:59.722Z,24.20
2017-07-08T07:31:27.981Z,25.20
2017-07-08T07:33:55.506Z,25.10
2017-07-08T07:36:22.987Z,25.30
2017-07-08T07:38:50.928Z,25.30
2017-07-08T07:41:18.734Z,25.30
2017-07-08T07:43:46.166Z,25.30
2017-07-08T07:46:13.973Z,25.50
2017-07-08T07:48:42.263Z,25.00
2017-07-08T07:51:09.787Z,24.90
2017-07-08T07:53:37.306Z,24.70
2017-07-08T07:56:04.818Z,24.50
2017-07-08T07:58:32.408Z,24.30
2017-07-08T08:00:59.915Z,24.00
2017-07-08T08:03:27.413Z,24.10
2017-07-08T08:05:55.717Z,24.40
2017-07-08T08:08:23.260Z,24.30
2017-07-08T08:10:50.744Z,24.80
2017-07-08T08:13:18.298Z,25.20
2017-07-08T08:15:45.789Z,25.30
2017-07-08T08:18:13.400Z,25.40
2017-07-08T08:20:40.905Z,25.10
2017-07-08T08:23:08.390Z,25.20
2017-07-08T08:25:35.932Z,25.90
2017-07-08T08:28:03.664Z,25.90
2017-07-08T08:30:31.186Z,25.90
2017-07-08T08:32:59.460Z,26.10
2017-07-08T08:35:27.755Z,26.30
2017-07-08T08:37:55.266Z,26.30
2017-07-08T08:40:23.583Z,26.00
2017-07-08T08:42:51.871Z,26.20
2017-07-08T08:45:19.448Z,26.20
2017-07-08T08:47:46.940Z,26.30
2017-07-08T08:50:14.465Z,26.40
2017-07-08T08:52:41.982Z,25.90
2017-07-08T08:55:10.257Z,25.80
2017-07-08T08:57:37.842Z,25.80
2017-07-08T09:00:05.336Z,25.70
2017-07-08T09:02:33.219Z,26.20
2017-07-08T09:05:00.743Z,26.10
2017-07-08T09:07:28.448Z,26.20
2017-07-08T09:09:55.936Z,26.30
2017-07-08T09:12:24.221Z,26.40
2017-07-08T09:14:51.727Z,26.40
2017-07-08T09:17:19.230Z,26.50
2017-07-08T09:19:47.502Z,26.50
2017-07-08T09:22:15.793Z,26.60
2017-07-08T09:24:43.361Z,26.60
2017-07-08T09:27:10.979Z,26.40
2017-07-08T09:29:38.594Z,26.20
2017-07-08T09:32:07.739Z,26.20
2017-07-08T09:34:36.767Z,26.70
2017-07-08T09:37:05.450Z,27.10
2017-07-08T09:39:32.944Z,27.10
2017-07-08T09:42:00.477Z,26.90
2017-07-08T09:44:27.971Z,27.70
2017-07-08T09:46:55.468Z,27.70
2017-07-08T09:49:23.761Z,26.80
2017-07-08T09:51:52.021Z,27.00
2017-07-08T09:54:20.295Z,27.40
2017-07-08T09:56:48.672Z,27.20
2017-07-08T09:59:16.175Z,27.10
2017-07-08T10:01:43.682Z,27.50
2017-07-08T10:04:11.304Z,27.80
2017-07-08T10:06:38.843Z,27.90
2017-07-08T10:09:06.348Z,27.40
2017-07-08T10:14:07.840Z,27.10
2017-07-08T10:16:35.363Z,26.80
2017-07-08T10:19:02.865Z,26.80
2017-07-08T10:21:31.145Z,26.90
2017-07-08T10:23:58.653Z,26.90
2017-07-08T10:26:26.162Z,27.10
2017-07-08T10:28:54.420Z,26.70
2017-07-08T10:31:21.948Z,26.70
2017-07-08T10:33:49.462Z,26.90
2017-07-08T10:36:17.714Z,26.60
2017-07-08T10:38:45.249Z,26.60
2017-07-08T10:41:12.771Z,27.20
2017-07-08T10:43:40.302Z,27.20
2017-07-08T10:46:07.812Z,27.10
2017-07-08T10:48:35.323Z,26.90
2017-07-08T10:51:03.595Z,25.90
2017-07-08T10:53:31.907Z,25.80
2017-07-08T10:55:59.497Z,25.90
2017-07-08T10:58:27.009Z,26.20
2017-07-08T11:00:55.306Z,25.90
2017-07-08T11:03:22.786Z,25.90
2017-07-08T11:05:50.279Z,25.90
2017-07-08T11:08:17.821Z,25.70
2017-07-08T11:10:45.323Z,25.40
2017-07-08T11:13:13.623Z,26.10
2017-07-08T11:15:41.145Z,26.10
2017-07-08T11:18:08.644Z,26.80
2017-07-08T11:20:36.355Z,27.20
2017-07-08T11:23:03.876Z,27.30
2017-07-08T11:25:31.373Z,27.20
2017-07-08T11:27:58.972Z,27.70
2017-07-08T11:30:26.465Z,27.50
2017-07-08T11:32:54.834Z,27.10
2017-07-08T11:35:22.368Z,26.80
2017-07-08T11:37:50.616Z,26.20
2017-07-08T11:40:18.115Z,26.20
2017-07-08T11:42:45.621Z,26.60
2017-07-08T11:45:13.115Z,27.60
2017-07-08T11:47:41.360Z,28.50
2017-07-08T11:50:08.967Z,28.40
2017-07-08T11:52:36.469Z,28.90
2017-07-08T11:55:03.965Z,28.80
2017-07-08T11:57:32.248Z,28.90
2017-07-08T12:00:00.499Z,29.50
2017-07-08T12:02:27.988Z,29.50
2017-07-08T12:04:55.495Z,28.90
2017-07-08T12:07:22.985Z,28.10
2017-07-08T12:09:51.945Z,28.60
2017-07-08T12:12:19.464Z,28.60
2017-07-08T12:14:46.975Z,29.00
2017-07-08T12:17:14.478Z,29.50
2017-07-08T12:19:42.071Z,30.20
2017-07-08T12:22:09.617Z,29.50
2017-07-08T12:24:37.125Z,28.90
2017-07-08T12:27:04.621Z,29.20
2017-07-08T12:29:32.107Z,29.40
2017-07-08T12:31:59.613Z,29.80
2017-07-08T12:34:27.905Z,31.70
2017-07-08T12:36:55.420Z,31.60
2017-07-08T12:39:22.900Z,32.40
2017-07-08T12:41:50.403Z,32.00
2017-07-08T12:44:17.896Z,31.40
2017-07-08T12:46:45.408Z,30.60
2017-07-08T12:49:12.933Z,29.90
2017-07-08T12:51:40.416Z,29.30
2017-07-08T12:54:07.935Z,30.20
2017-07-08T12:56:35.658Z,31.90
2017-07-08T12:59:03.147Z,33.60
2017-07-08T13:01:30.654Z,34.70
2017-07-08T13:03:58.234Z,34.60
2017-07-08T13:06:25.907Z,34.30
2017-07-08T13:08:53.388Z,33.50
2017-07-08T13:11:21.118Z,32.10
2017-07-08T13:13:48.620Z,30.90
2017-07-08T13:16:16.110Z,31.20
2017-07-08T13:18:44.393Z,30.80
2017-07-08T13:21:12.650Z,29.90
2017-07-08T13:23:40.234Z,29.80
2017-07-08T13:26:08.603Z,29.70
2017-07-08T13:28:36.854Z,29.40
2017-07-08T13:31:04.339Z,29.40
2017-07-08T13:33:32.602Z,30.40
2017-07-08T13:36:00.130Z,30.40
2017-07-08T13:38:27.631Z,30.90
2017-07-08T13:40:56.749Z,31.10
2017-07-08T13:43:24.264Z,31.10
2017-07-08T13:45:52.090Z,31.50
2017-07-08T13:48:19.607Z,31.10
2017-07-08T13:50:47.890Z,32.10
2017-07-08T13:53:16.141Z,31.80
2017-07-08T13:55:43.646Z,31.70
2017-07-08T13:58:11.230Z,32.00
2017-07-08T14:00:38.713Z,34.50
2017-07-08T14:03:07.121Z,36.10
2017-07-08T14:05:35.437Z,33.80
2017-07-08T14:08:20.730Z,33.80
2017-07-08T14:10:48.259Z,35.00
2017-07-08T14:13:15.738Z,35.50
2017-07-08T14:15:43.294Z,34.40
2017-07-08T14:18:10.786Z,34.50
2017-07-08T14:20:38.261Z,34.50
2017-07-08T14:23:05.817Z,34.00
2017-07-08T14:25:33.324Z,34.60
2017-07-08T14:28:00.819Z,34.30
2017-07-08T14:30:29.125Z,35.50
2017-07-08T14:32:57.378Z,37.40
2017-07-08T14:35:24.993Z,37.30
2017-07-08T14:37:52.532Z,39.00
2017-07-08T14:40:20.788Z,39.10
2017-07-08T14:42:48.273Z,39.10
2017-07-08T14:45:15.797Z,39.10
2017-07-08T14:47:43.284Z,38.90
2017-07-08T14:50:10.772Z,38.60
2017-07-08T14:52:38.511Z,38.40
2017-07-08T14:55:06.083Z,38.30
2017-07-08T14:57:33.637Z,39.00
2017-07-08T15:00:01.143Z,40.20
2017-07-08T15:02:28.636Z,40.20
2017-07-08T15:04:56.130Z,38.10
2017-07-08T15:07:23.666Z,35.30
2017-07-08T15:09:51.171Z,34.90
2017-07-08T15:12:18.683Z,34.00
2017-07-08T15:14:46.203Z,33.00
2017-07-08T15:17:13.721Z,32.00
2017-07-08T15:19:41.221Z,32.00
2017-07-08T15:22:08.759Z,31.60
2017-07-08T15:24:36.275Z,31.10
2017-07-08T15:27:03.782Z,30.60
2017-07-08T15:29:31.304Z,30.90
2017-07-08T15:31:58.827Z,31.10
2017-07-08T15:34:26.309Z,30.60
2017-07-08T15:36:54.599Z,30.90
2017-07-08T15:39:22.106Z,30.90
2017-07-08T15:41:49.593Z,31.10
2017-07-08T15:44:17.896Z,30.90
2017-07-08T15:46:45.379Z,30.90
2017-07-08T15:49:12.862Z,31.30
2017-07-08T15:51:40.380Z,31.70
2017-07-08T15:54:07.917Z,31.80
2017-07-08T15:56:36.203Z,31.40
2017-07-08T15:59:03.727Z,31.40
2017-07-08T16:01:31.230Z,31.50
2017-07-08T16:03:58.740Z,31.90
2017-07-08T16:06:26.331Z,31.80
2017-07-08T16:08:53.820Z,31.50
2017-07-08T16:11:21.349Z,31.60
2017-07-08T16:13:48.864Z,31.90
2017-07-08T16:16:16.388Z,31.60
2017-07-08T16:18:43.916Z,31.90
2017-07-08T16:21:12.171Z,31.50
2017-07-08T16:23:39.662Z,31.50
2017-07-08T16:26:07.179Z,31.50
2017-07-08T16:28:34.663Z,31.30
2017-07-08T16:31:02.934Z,31.20
2017-07-08T16:33:30.447Z,31.10
2017-07-08T16:35:57.942Z,31.10
2017-07-08T16:38:25.432Z,31.30
2017-07-08T16:40:53.100Z,31.20
2017-07-08T16:43:20.680Z,31.20
2017-07-08T16:45:48.244Z,30.30
2017-07-08T16:48:15.754Z,30.60
2017-07-08T16:50:44.051Z,30.20
2017-07-08T16:53:11.650Z,30.10
2017-07-08T16:55:39.189Z,30.20
2017-07-08T16:58:06.665Z,30.60
2017-07-08T17:00:34.335Z,30.70
2017-07-08T17:03:02.690Z,29.90
2017-07-08T17:05:30.178Z,29.90
2017-07-08T17:07:57.700Z,30.00
2017-07-08T17:10:25.222Z,30.10
2017-07-08T17:12:52.799Z,30.50
2017-07-08T17:15:21.069Z,30.60
2017-07-08T17:17:49.374Z,30.60
2017-07-08T17:20:16.914Z,30.70
2017-07-08T17:22:45.181Z,31.10
2017-07-08T17:25:12.675Z,31.10
2017-07-08T17:27:40.555Z,31.20
2017-07-08T17:30:08.048Z,31.70
2017-07-08T17:32:35.569Z,31.40
2017-07-08T17:35:03.086Z,31.10
2017-07-08T17:37:30.590Z,30.80
2017-07-08T17:39:58.393Z,30.60
2017-07-08T17:42:26.044Z,30.60
2017-07-08T17:44:53.523Z,29.50
2017-07-08T17:47:21.012Z,30.10
2017-07-08T17:49:48.576Z,30.20
2017-07-08T17:52:16.048Z,30.30
2017-07-08T17:54:43.530Z,30.10
2017-07-08T17:57:11.057Z,30.30
2017-07-08T17:59:38.550Z,30.40
2017-07-08T18:02:06.038Z,30.50
2017-07-08T18:04:33.543Z,30.30
2017-07-08T18:07:01.042Z,30.20
2017-07-08T18:09:28.521Z,30.00
2017-07-08T18:11:57.561Z,29.60
2017-07-08T18:14:25.096Z,29.60
2017-07-08T18:16:52.577Z,28.60
2017-07-08T18:19:20.094Z,29.20
2017-07-08T18:21:48.346Z,29.20
2017-07-08T18:24:15.844Z,29.20
2017-07-08T18:26:43.364Z,28.80
2017-07-08T18:29:10.858Z,28.10
2017-07-08T18:31:39.097Z,27.70
2017-07-08T18:34:06.683Z,27.70
2017-07-08T18:36:34.959Z,27.50
2017-07-08T18:39:03.215Z,27.40
2017-07-08T18:41:30.721Z,27.40
2017-07-08T18:43:58.229Z,27.40
2017-07-08T18:46:25.704Z,27.10
2017-07-08T18:48:53.393Z,26.80
2017-07-08T18:51:21.097Z,26.60
2017-07-08T18:53:48.627Z,26.40
2017-07-08T18:56:16.157Z,26.20
2017-07-08T18:58:44.433Z,26.20
2017-07-08T19:01:12.687Z,26.30
2017-07-08T19:03:40.284Z,26.30
2017-07-08T19:06:09.478Z,26.20
2017-07-08T19:08:37.785Z,26.20
2017-07-08T19:11:05.286Z,26.20
2017-07-08T19:13:32.808Z,26.20
2017-07-08T19:16:00.300Z,26.20
2017-07-08T19:18:27.831Z,26.10
2017-07-08T19:20:55.340Z,25.90
2017-07-08T19:23:23.627Z,25.90
2017-07-08T19:25:51.945Z,25.60
2017-07-08T19:28:19.484Z,25.50
2017-07-08T19:30:46.978Z,25.40
2017-07-08T19:33:14.494Z,25.20
2017-07-08T19:35:42.026Z,25.00
2017-07-08T19:38:10.224Z,24.90
2017-07-08T19:40:37.759Z,24.80
2017-07-08T19:43:06.031Z,24.50
2017-07-08T19:45:33.527Z,24.50
2017-07-08T19:48:01.053Z,24.30
2017-07-08T19:50:28.680Z,24.10
2017-07-08T19:52:56.178Z,23.90
2017-07-08T19:55:24.456Z,23.60
2017-07-08T19:57:52.721Z,23.20
2017-07-08T20:00:20.218Z,23.20
2017-07-08T20:02:47.742Z,23.10
2017-07-08T20:05:15.271Z,22.90
2017-07-08T20:07:42.803Z,23.00
2017-07-08T20:10:10.660Z,22.90
2017-07-08T20:12:38.236Z,22.60
2017-07-08T20:15:06.498Z,22.70
2017-07-08T20:17:34.076Z,22.70
2017-07-08T20:20:01.633Z,22.50
2017-07-08T20:22:29.443Z,22.60
2017-07-08T20:24:56.985Z,22.60
2017-07-08T20:27:24.469Z,22.30
2017-07-08T20:29:52.040Z,22.30
2017-07-08T20:32:20.331Z,22.40
2017-07-08T20:34:47.822Z,22.40
2017-07-08T20:37:16.235Z,22.50
2017-07-08T20:39:43.763Z,22.50
2017-07-08T20:42:11.268Z,22.40
2017-07-08T20:44:38.785Z,22.40
2017-07-08T20:47:06.311Z,22.20
2017-07-08T20:49:33.832Z,22.20
2017-07-08T20:52:01.334Z,22.20
2017-07-08T20:54:29.003Z,21.90
2017-07-08T20:56:56.499Z,21.80
2017-07-08T20:59:23.990Z,21.80
2017-07-08T21:01:52.284Z,21.70
2017-07-08T21:04:19.829Z,21.70
2017-07-08T21:06:48.110Z,21.30
2017-07-08T21:09:16.382Z,21.10
2017-07-08T21:11:44.697Z,21.00
2017-07-08T21:14:12.215Z,20.90
2017-07-08T21:16:40.488Z,21.20
2017-07-08T21:19:08.171Z,21.10
2017-07-08T21:21:36.446Z,21.40
2017-07-08T21:24:04.725Z,21.10
2017-07-08T21:26:32.251Z,21.10
2017-07-08T21:28:59.744Z,21.00
2017-07-08T21:31:27.251Z,21.00
2017-07-08T21:33:54.784Z,21.00
2017-07-08T21:36:23.318Z,21.00
2017-07-08T21:38:50.929Z,21.00
2017-07-08T21:41:18.473Z,20.80
2017-07-08T21:43:45.973Z,20.50
2017-07-08T21:46:13.507Z,20.80
2017-07-08T21:48:41.020Z,20.90
2017-07-08T21:51:08.510Z,20.80
2017-07-08T21:53:36.029Z,21.10
2017-07-08T21:56:03.575Z,21.20
2017-07-08T21:58:31.119Z,21.30
2017-07-08T22:00:58.614Z,21.20
2017-07-08T22:03:26.133Z,21.10
2017-07-08T22:05:53.634Z,20.90
2017-07-08T22:08:21.906Z,20.30
2017-07-08T22:10:49.459Z,20.30
2017-07-08T22:13:16.994Z,20.30
2017-07-08T22:15:44.488Z,20.20
2017-07-08T22:18:12.008Z,20.20
2017-07-08T22:20:39.529Z,20.20
2017-07-08T22:23:07.266Z,20.00
2017-07-08T22:25:34.788Z,19.90
2017-07-08T22:28:02.296Z,19.80
2017-07-08T22:30:30.554Z,19.80
2017-07-08T22:32:58.068Z,19.80
2017-07-08T22:35:25.603Z,19.90
2017-07-08T22:37:53.104Z,19.90
2017-07-08T22:40:20.670Z,20.00
2017-07-08T22:42:48.186Z,20.00
2017-07-08T22:45:15.700Z,20.00
2017-07-08T22:47:43.230Z,19.80
2017-07-08T22:50:10.746Z,19.90
2017-07-08T22:52:39.025Z,19.70
2017-07-08T22:55:07.324Z,19.60
2017-07-08T22:57:34.812Z,19.60
2017-07-08T23:00:02.310Z,19.40
2017-07-08T23:02:30.615Z,19.30
2017-07-08T23:04:58.136Z,19.30
2017-07-08T23:07:26.455Z,19.50
2017-07-08T23:09:53.993Z,19.50
2017-07-08T23:12:22.254Z,19.60
2017-07-08T23:14:49.736Z,19.50
2017-07-08T23:17:18.054Z,19.60
2017-07-08T23:19:45.560Z,19.50
2017-07-08T23:22:13.852Z,19.40
2017-07-08T23:24:42.181Z,19.30
2017-07-08T23:27:09.702Z,19.30
2017-07-08T23:29:37.192Z,19.20
2017-07-08T23:32:04.706Z,19.20
2017-07-08T23:34:32.212Z,19.30
2017-07-08T23:36:59.710Z,19.30
2017-07-08T23:39:27.271Z,19.30
2017-07-08T23:41:54.784Z,19.30
2017-07-08T23:44:22.299Z,19.20
2017-07-08T23:46:50.701Z,19.10
2017-07-08T23:49:18.236Z,19.10
2017-07-08T23:51:45.731Z,19.20
2017-07-08T23:54:13.357Z,19.40
2017-07-08T23:56:41.616Z,19.60
2017-07-08T23:59:09.341Z,19.50
